createdAt,value
2022-10-14T00:00:49.006Z,65.21
2022-10-14T00:01:50.829Z,64.30
2022-10-14T00:02:52.492Z,64.51
2022-10-14T00:03:55.083Z,64.35
2022-10-14T00:04:56.736Z,63.99
2022-10-14T00:05:58.523Z,64.64
2022-10-14T00:07:00.208Z,64.09
2022-10-14T00:08:01.854Z,64.23
2022-10-14T00:09:07.533Z,64.09
2022-10-14T00:10:09.403Z,63.56
2022-10-14T00:11:18.919Z,63.65
2022-10-14T00:12:20.592Z,63.65
2022-10-14T00:13:22.269Z,64.07
2022-10-14T00:14:24.029Z,64.05
2022-10-14T00:15:25.708Z,64.25
2022-10-14T00:16:30.150Z,63.75
2022-10-14T00:17:31.846Z,64.14
2022-10-14T00:18:33.733Z,64.10
2022-10-14T00:19:35.410Z,64.14
2022-10-14T00:20:37.224Z,63.34
2022-10-14T00:21:42.015Z,63.84
2022-10-14T00:22:44.114Z,63.68
2022-10-14T00:23:46.842Z,64.73
2022-10-14T00:24:48.535Z,65.10
2022-10-14T00:25:50.326Z,64.77
2022-10-14T00:26:52.048Z,65.38
2022-10-14T00:27:54.458Z,66.84
2022-10-14T00:28:57.110Z,66.57
2022-10-14T00:29:58.831Z,66.88
2022-10-14T00:31:02.630Z,66.91
2022-10-14T00:32:04.518Z,67.30
2022-10-14T00:33:06.180Z,67.29
2022-10-14T00:34:08.000Z,67.41
2022-10-14T00:35:09.770Z,67.18
2022-10-14T00:36:15.137Z,67.08
2022-10-14T00:37:16.793Z,67.53
2022-10-14T00:38:18.419Z,67.22
2022-10-14T00:39:20.068Z,67.34
2022-10-14T00:40:21.797Z,67.35
2022-10-14T00:41:31.910Z,66.69
2022-10-14T00:42:34.459Z,66.58
2022-10-14T00:44:14.535Z,66.79
2022-10-14T00:45:21.527Z,67.21
2022-10-14T00:46:24.699Z,67.38
2022-10-14T00:47:26.477Z,67.30
2022-10-14T00:48:28.131Z,67.26
2022-10-14T00:49:34.296Z,67.58
2022-10-14T00:50:37.002Z,67.54
2022-10-14T00:51:41.057Z,66.81
2022-10-14T00:52:44.384Z,66.76
2022-10-14T00:53:47.433Z,67.03
2022-10-14T00:54:53.912Z,66.68
2022-10-14T00:55:55.553Z,66.77
2022-10-14T00:56:57.311Z,66.35
2022-10-14T00:57:59.007Z,65.50
2022-10-14T00:59:03.891Z,65.85
2022-10-14T01:00:12.394Z,65.35
2022-10-14T01:01:14.239Z,65.51
2022-10-14T01:02:15.949Z,65.19
2022-10-14T01:03:20.760Z,65.15
2022-10-14T01:04:22.459Z,64.93
2022-10-14T01:05:31.752Z,64.70
2022-10-14T01:07:01.983Z,64.19
2022-10-14T01:08:11.549Z,64.25
2022-10-14T01:09:16.769Z,64.46
2022-10-14T01:10:44.318Z,64.72
2022-10-14T01:12:04.210Z,64.86
2022-10-14T01:13:40.551Z,65.23
2022-10-14T01:14:51.513Z,65.25
2022-10-14T01:16:17.254Z,64.88
2022-10-14T01:17:27.664Z,64.98
2022-10-14T01:18:44.560Z,65.16
2022-10-14T01:19:58.861Z,65.22
2022-10-14T01:21:23.696Z,66.05
2022-10-14T01:22:35.258Z,65.54
2022-10-14T01:24:13.832Z,65.65
2022-10-14T01:25:30.767Z,65.58
2022-10-14T01:26:51.318Z,65.72
2022-10-14T01:28:08.429Z,65.07
2022-10-14T01:29:24.981Z,65.11
2022-10-14T01:30:32.969Z,64.77
2022-10-14T01:31:38.859Z,65.25
2022-10-14T01:33:11.333Z,65.26
2022-10-14T01:34:20.790Z,65.59
2022-10-14T01:36:00.508Z,64.89
2022-10-14T01:37:09.852Z,64.57
2022-10-14T01:38:16.660Z,64.40
2022-10-14T01:39:23.714Z,64.59
2022-10-14T01:40:47.610Z,63.99
2022-10-14T01:41:55.356Z,64.12
2022-10-14T01:43:00.756Z,64.69
2022-10-14T01:44:08.317Z,64.07
2022-10-14T01:45:19.408Z,63.85
2022-10-14T01:46:25.163Z,64.05
2022-10-14T01:47:30.777Z,64.27
2022-10-14T01:48:37.067Z,64.66
2022-10-14T01:49:44.306Z,64.03
2022-10-14T01:50:50.235Z,63.75
2022-10-14T01:52:07.560Z,63.84
2022-10-14T01:53:14.614Z,63.70
2022-10-14T01:54:21.752Z,63.95
2022-10-14T01:55:27.502Z,63.87
2022-10-14T01:56:33.477Z,63.95
2022-10-14T01:57:40.303Z,64.22
2022-10-14T01:58:43.750Z,63.99
2022-10-14T01:59:47.302Z,64.28
2022-10-14T02:00:49.049Z,64.29
2022-10-14T02:01:50.709Z,64.41
2022-10-14T02:02:52.490Z,64.12
2022-10-14T02:03:54.370Z,64.41
2022-10-14T02:04:56.006Z,64.26
2022-10-14T02:06:03.682Z,63.57
2022-10-14T02:07:05.274Z,62.97
2022-10-14T02:08:29.677Z,63.18
2022-10-14T02:10:09.475Z,62.63
2022-10-14T02:11:18.942Z,62.83
2022-10-14T02:12:23.533Z,62.64
2022-10-14T02:13:58.323Z,62.49
2022-10-14T02:15:29.692Z,63.02
2022-10-14T02:16:40.793Z,63.21
2022-10-14T02:17:55.868Z,62.67
2022-10-14T02:19:29.738Z,62.14
2022-10-14T02:20:36.054Z,62.52
2022-10-14T02:21:42.261Z,62.36
2022-10-14T02:22:50.554Z,62.71
2022-10-14T02:24:03.222Z,63.21
2022-10-14T02:25:14.750Z,62.97
2022-10-14T02:26:17.554Z,62.80
2022-10-14T02:27:22.275Z,62.79
2022-10-14T02:28:27.839Z,62.97
2022-10-14T02:29:32.010Z,62.73
2022-10-14T02:30:38.148Z,62.66
2022-10-14T02:31:41.942Z,62.84
2022-10-14T02:32:45.120Z,63.04
2022-10-14T02:33:51.950Z,63.05
2022-10-14T02:34:57.650Z,62.48
2022-10-14T02:36:01.707Z,62.73
2022-10-14T02:37:04.088Z,62.48
2022-10-14T02:38:08.145Z,62.71
2022-10-14T02:39:13.085Z,62.81
2022-10-14T02:40:20.787Z,62.24
2022-10-14T02:41:25.782Z,62.47
2022-10-14T02:42:28.243Z,62.17
2022-10-14T02:43:30.290Z,62.60
2022-10-14T02:44:31.959Z,63.04
2022-10-14T02:45:35.078Z,62.81
2022-10-14T02:46:39.765Z,62.67
2022-10-14T02:47:41.442Z,62.31
2022-10-14T02:48:43.130Z,62.44
2022-10-14T02:49:44.784Z,62.02
2022-10-14T02:50:46.585Z,62.10
2022-10-14T02:51:48.594Z,61.95
2022-10-14T02:52:50.241Z,62.26
2022-10-14T02:53:51.922Z,62.52
2022-10-14T02:54:53.615Z,62.08
2022-10-14T02:55:55.323Z,62.22
2022-10-14T02:56:56.970Z,62.00
2022-10-14T02:57:58.612Z,62.08
2022-10-14T02:59:00.271Z,62.46
2022-10-14T03:00:01.980Z,62.39
2022-10-14T03:01:03.667Z,62.74
2022-10-14T03:02:07.598Z,63.02
2022-10-14T03:03:09.362Z,62.71
2022-10-14T03:04:11.054Z,62.04
2022-10-14T03:05:12.738Z,61.96
2022-10-14T03:06:14.596Z,62.02
2022-10-14T03:07:16.276Z,61.66
2022-10-14T03:08:17.909Z,61.66
2022-10-14T03:09:20.006Z,61.59
2022-10-14T03:10:21.767Z,61.53
2022-10-14T03:11:23.428Z,61.74
2022-10-14T03:12:25.674Z,61.39
2022-10-14T03:13:27.421Z,60.91
2022-10-14T03:14:29.105Z,60.82
2022-10-14T03:15:30.786Z,61.02
2022-10-14T03:16:32.482Z,60.97
2022-10-14T03:17:34.145Z,60.88
2022-10-14T03:18:35.796Z,60.78
2022-10-14T03:19:37.431Z,60.46
2022-10-14T03:20:39.140Z,61.17
2022-10-14T03:21:40.804Z,60.92
2022-10-14T03:22:42.534Z,60.12
2022-10-14T03:23:44.297Z,60.48
2022-10-14T03:24:45.941Z,60.83
2022-10-14T03:25:48.564Z,61.59
2022-10-14T03:26:50.231Z,60.94
2022-10-14T03:27:51.929Z,60.52
2022-10-14T03:28:53.857Z,60.38
2022-10-14T03:29:55.569Z,59.99
2022-10-14T03:30:57.232Z,60.50
2022-10-14T03:31:58.891Z,60.99
2022-10-14T03:33:00.546Z,60.85
2022-10-14T03:34:02.485Z,60.69
2022-10-14T03:35:04.367Z,60.84
2022-10-14T03:36:06.356Z,60.49
2022-10-14T03:37:08.061Z,60.66
2022-10-14T03:38:09.725Z,60.49
2022-10-14T03:39:12.342Z,60.09
2022-10-14T03:40:14.278Z,60.20
2022-10-14T03:41:15.918Z,59.68
2022-10-14T03:42:17.604Z,59.28
2022-10-14T03:43:19.301Z,59.75
2022-10-14T03:44:21.010Z,59.60
2022-10-14T03:45:22.670Z,59.55
2022-10-14T03:46:24.426Z,59.89
2022-10-14T03:47:26.080Z,60.68
2022-10-14T03:48:27.779Z,60.81
2022-10-14T03:49:29.454Z,61.26
2022-10-14T03:50:31.488Z,61.23
2022-10-14T03:51:33.292Z,60.75
2022-10-14T03:52:35.032Z,60.76
2022-10-14T03:53:37.012Z,60.74
2022-10-14T03:54:38.656Z,60.61
2022-10-14T03:55:40.490Z,60.72
2022-10-14T03:56:42.226Z,59.89
2022-10-14T03:57:44.101Z,59.27
2022-10-14T03:58:45.731Z,59.33
2022-10-14T03:59:47.376Z,59.71
2022-10-14T04:00:49.039Z,59.87
2022-10-14T04:01:50.760Z,59.69
2022-10-14T04:02:52.492Z,59.66
2022-10-14T04:03:54.123Z,59.99
2022-10-14T04:04:59.974Z,60.18
2022-10-14T04:06:02.468Z,60.04
2022-10-14T04:07:04.133Z,59.45
2022-10-14T04:08:06.297Z,59.32
2022-10-14T04:09:08.105Z,59.02
2022-10-14T04:10:09.846Z,59.09
2022-10-14T04:11:11.489Z,59.88
2022-10-14T04:12:13.204Z,59.38
2022-10-14T04:13:14.978Z,59.56
2022-10-14T04:14:16.680Z,59.68
2022-10-14T04:15:18.358Z,59.60
2022-10-14T04:16:20.439Z,59.13
2022-10-14T04:17:22.093Z,59.39
2022-10-14T04:18:23.773Z,59.66
2022-10-14T04:19:25.647Z,59.92
2022-10-14T04:20:27.420Z,59.85
2022-10-14T04:21:29.155Z,59.48
2022-10-14T04:22:30.899Z,59.19
2022-10-14T04:23:32.913Z,59.42
2022-10-14T04:24:34.606Z,59.12
2022-10-14T04:25:39.444Z,59.35
2022-10-14T04:26:41.102Z,59.38
2022-10-14T04:27:42.738Z,59.30
2022-10-14T04:28:44.417Z,59.67
2022-10-14T04:29:46.193Z,59.15
2022-10-14T04:30:47.851Z,59.83
2022-10-14T04:31:49.679Z,60.26
2022-10-14T04:32:51.333Z,59.62
2022-10-14T04:33:53.297Z,59.98
2022-10-14T04:34:55.137Z,59.43
2022-10-14T04:36:01.255Z,59.49
2022-10-14T04:37:03.388Z,59.43
2022-10-14T04:38:05.251Z,59.27
2022-10-14T04:39:07.110Z,59.02
2022-10-14T04:40:09.088Z,58.58
2022-10-14T04:41:10.819Z,58.39
2022-10-14T04:42:12.575Z,58.57
2022-10-14T04:43:14.228Z,58.53
2022-10-14T04:44:16.048Z,58.46
2022-10-14T04:45:17.697Z,58.44
2022-10-14T04:46:19.365Z,58.77
2022-10-14T04:47:21.055Z,58.97
2022-10-14T04:48:22.767Z,59.24
2022-10-14T04:49:24.516Z,59.35
2022-10-14T04:50:26.467Z,59.23
2022-10-14T04:51:28.182Z,60.02
2022-10-14T04:52:29.884Z,60.05
2022-10-14T04:53:31.522Z,60.69
2022-10-14T04:54:33.191Z,60.80
2022-10-14T04:55:34.951Z,60.68
2022-10-14T04:56:37.042Z,60.57
2022-10-14T04:57:43.942Z,60.53
2022-10-14T04:58:45.690Z,60.48
2022-10-14T04:59:47.340Z,60.35
2022-10-14T05:00:49.085Z,60.25
2022-10-14T05:01:50.807Z,60.56
2022-10-14T05:02:52.585Z,61.54
2022-10-14T05:03:54.243Z,61.86
2022-10-14T05:04:56.569Z,61.56
2022-10-14T05:05:59.200Z,61.79
2022-10-14T05:07:00.894Z,61.69
2022-10-14T05:08:02.629Z,61.68
2022-10-14T05:09:06.100Z,61.77
2022-10-14T05:10:10.371Z,61.82
2022-10-14T05:11:12.049Z,61.36
2022-10-14T05:12:14.801Z,60.89
2022-10-14T05:13:17.670Z,60.85
2022-10-14T05:14:19.381Z,61.01
2022-10-14T05:15:21.743Z,61.03
2022-10-14T05:16:23.399Z,60.88
2022-10-14T05:17:25.197Z,60.97
2022-10-14T05:18:26.885Z,60.63
2022-10-14T05:19:28.578Z,60.27
2022-10-14T05:20:30.741Z,60.79
2022-10-14T05:21:32.447Z,60.36
2022-10-14T05:22:34.205Z,60.05
2022-10-14T05:23:35.924Z,60.19
2022-10-14T05:24:37.616Z,60.24
2022-10-14T05:25:39.380Z,59.97
2022-10-14T05:26:41.060Z,59.58
2022-10-14T05:27:42.902Z,59.82
2022-10-14T05:28:44.648Z,59.15
2022-10-14T05:29:46.406Z,59.00
2022-10-14T05:30:48.152Z,58.82
2022-10-14T05:31:49.840Z,59.04
2022-10-14T05:32:51.492Z,58.90
2022-10-14T05:33:53.332Z,58.11
2022-10-14T05:34:55.415Z,58.21
2022-10-14T05:35:59.649Z,58.29
2022-10-14T05:37:02.129Z,58.12
2022-10-14T05:38:04.750Z,57.81
2022-10-14T05:39:09.688Z,57.67
2022-10-14T05:40:11.766Z,57.47
2022-10-14T05:41:13.415Z,57.32
2022-10-14T05:42:15.124Z,57.33
2022-10-14T05:43:16.780Z,57.79
2022-10-14T05:44:18.583Z,57.84
2022-10-14T05:45:20.311Z,57.98
2022-10-14T05:46:22.203Z,57.61
2022-10-14T05:47:23.990Z,57.89
2022-10-14T05:48:25.682Z,57.15
2022-10-14T05:49:27.779Z,57.37
2022-10-14T05:50:29.539Z,57.46
2022-10-14T05:51:31.247Z,57.31
2022-10-14T05:52:34.354Z,57.32
2022-10-14T05:53:37.054Z,56.31
2022-10-14T05:54:38.877Z,56.13
2022-10-14T05:55:41.960Z,56.19
2022-10-14T05:56:44.020Z,56.35
2022-10-14T05:57:45.856Z,56.72
2022-10-14T05:58:47.912Z,56.72
2022-10-14T05:59:49.777Z,57.17
2022-10-14T06:00:51.823Z,57.05
2022-10-14T06:01:53.789Z,56.15
2022-10-14T06:02:58.096Z,55.95
2022-10-14T06:04:00.177Z,56.47
2022-10-14T06:05:02.670Z,56.70
2022-10-14T06:06:04.777Z,56.46
2022-10-14T06:07:07.341Z,55.39
2022-10-14T06:08:09.362Z,56.23
2022-10-14T06:09:11.700Z,55.97
2022-10-14T06:10:13.837Z,55.76
2022-10-14T06:11:15.753Z,56.34
2022-10-14T06:12:17.739Z,55.92
2022-10-14T06:13:20.602Z,56.05
2022-10-14T06:14:22.525Z,55.97
2022-10-14T06:15:24.499Z,55.43
2022-10-14T06:16:26.485Z,55.28
2022-10-14T06:17:29.246Z,54.72
2022-10-14T06:18:31.344Z,55.13
2022-10-14T06:19:33.866Z,54.29
2022-10-14T06:20:36.598Z,54.78
2022-10-14T06:21:38.694Z,56.11
2022-10-14T06:22:40.873Z,56.09
2022-10-14T06:23:42.946Z,55.34
2022-10-14T06:24:45.112Z,54.65
2022-10-14T06:25:47.256Z,53.99
2022-10-14T06:26:49.550Z,53.01
2022-10-14T06:27:51.696Z,54.50
2022-10-14T06:28:54.024Z,52.81
2022-10-14T06:29:56.345Z,53.91
2022-10-14T06:30:58.583Z,53.18
2022-10-14T06:32:00.634Z,53.18
2022-10-14T06:33:02.754Z,53.02
2022-10-14T06:34:06.239Z,53.42
2022-10-14T06:35:09.029Z,52.40
2022-10-14T06:36:11.979Z,52.53
2022-10-14T06:37:14.164Z,51.11
2022-10-14T06:38:16.737Z,53.27
2022-10-14T06:39:18.892Z,53.64
2022-10-14T06:40:21.492Z,55.15
2022-10-14T06:41:24.131Z,53.25
2022-10-14T06:42:26.721Z,52.71
2022-10-14T06:43:29.105Z,52.75
2022-10-14T06:44:31.325Z,52.56
2022-10-14T06:45:33.938Z,51.93
2022-10-14T06:46:35.863Z,53.07
2022-10-14T06:47:37.810Z,52.56
2022-10-14T06:48:39.708Z,53.24
2022-10-14T06:49:41.662Z,51.25
2022-10-14T06:50:44.216Z,51.49
2022-10-14T06:51:46.307Z,50.59
2022-10-14T06:52:48.457Z,51.29
2022-10-14T06:53:50.558Z,51.64
2022-10-14T06:54:52.661Z,50.86
2022-10-14T06:56:00.120Z,50.43
2022-10-14T06:57:02.141Z,51.49
2022-10-14T06:58:04.309Z,51.57
2022-10-14T06:59:06.392Z,50.55
2022-10-14T07:00:09.343Z,51.23
2022-10-14T07:01:11.790Z,50.85
2022-10-14T07:02:14.403Z,51.75
2022-10-14T07:03:16.672Z,51.20
2022-10-14T07:04:18.898Z,50.86
2022-10-14T07:05:21.016Z,51.03
2022-10-14T07:06:23.243Z,50.61
2022-10-14T07:07:25.556Z,50.75
2022-10-14T07:08:27.795Z,51.47
2022-10-14T07:09:30.033Z,51.78
2022-10-14T07:10:32.236Z,52.15
2022-10-14T07:11:34.426Z,52.01
2022-10-14T07:12:36.730Z,52.14
2022-10-14T07:13:40.125Z,51.46
2022-10-14T07:14:42.333Z,51.97
2022-10-14T07:15:48.663Z,51.90
2022-10-14T07:16:51.009Z,51.48
2022-10-14T07:17:53.273Z,51.61
2022-10-14T07:18:55.707Z,51.73
2022-10-14T07:19:58.313Z,51.82
2022-10-14T07:21:07.355Z,53.52
2022-10-14T07:22:09.735Z,52.40
2022-10-14T07:23:12.200Z,51.21
2022-10-14T07:24:14.702Z,52.27
2022-10-14T07:25:17.073Z,51.72
2022-10-14T07:26:19.352Z,52.76
2022-10-14T07:27:22.066Z,52.38
2022-10-14T07:28:24.769Z,52.18
2022-10-14T07:29:27.055Z,51.90
2022-10-14T07:30:29.448Z,53.24
2022-10-14T07:31:31.814Z,51.52
2022-10-14T07:32:37.173Z,50.66
2022-10-14T07:33:40.541Z,51.66
2022-10-14T07:35:19.729Z,50.97
2022-10-14T07:37:17.415Z,52.06
2022-10-14T07:38:58.000Z,52.00
2022-10-14T07:39:59.679Z,52.18
2022-10-14T07:41:16.782Z,52.14
2022-10-14T07:43:25.254Z,52.23
2022-10-14T07:44:27.543Z,52.63
2022-10-14T07:45:35.252Z,53.51
2022-10-14T07:46:39.864Z,52.96
2022-10-14T07:47:42.947Z,52.11
2022-10-14T07:48:56.659Z,52.35
2022-10-14T07:50:01.086Z,52.18
2022-10-14T07:51:03.123Z,52.01
2022-10-14T07:52:05.179Z,52.54
2022-10-14T07:53:06.879Z,52.25
2022-10-14T07:54:13.210Z,53.09
2022-10-14T07:55:14.960Z,53.56
2022-10-14T07:56:16.707Z,52.86
2022-10-14T07:57:18.903Z,52.22
2022-10-14T07:58:25.699Z,52.46
2022-10-14T07:59:27.518Z,51.73
2022-10-14T08:00:29.322Z,50.87
2022-10-14T08:01:31.333Z,50.97
2022-10-14T08:02:33.046Z,50.94
2022-10-14T08:03:34.781Z,51.82
2022-10-14T08:04:36.636Z,50.03
2022-10-14T08:05:39.143Z,50.64
2022-10-14T08:06:41.229Z,52.13
2022-10-14T08:07:42.949Z,52.48
2022-10-14T08:08:45.148Z,50.53
2022-10-14T08:09:47.547Z,51.51
2022-10-14T08:10:49.431Z,52.32
2022-10-14T08:11:51.601Z,52.16
2022-10-14T08:12:53.605Z,51.88
2022-10-14T08:13:56.020Z,51.78
2022-10-14T08:14:58.189Z,51.62
2022-10-14T08:16:00.161Z,51.95
2022-10-14T08:17:02.337Z,52.05
2022-10-14T08:18:05.895Z,52.51
2022-10-14T08:19:14.645Z,53.21
2022-10-14T08:20:17.173Z,54.37
2022-10-14T08:21:21.069Z,52.15
2022-10-14T08:22:23.557Z,52.54
2022-10-14T08:23:26.961Z,53.49
2022-10-14T08:24:28.909Z,50.27
2022-10-14T08:25:30.982Z,49.62
2022-10-14T08:26:38.265Z,50.30
2022-10-14T08:27:40.062Z,50.37
2022-10-14T08:28:41.962Z,49.94
2022-10-14T08:29:43.816Z,49.46
2022-10-14T08:30:45.721Z,48.45
2022-10-14T08:31:47.588Z,47.85
2022-10-14T08:32:49.426Z,48.98
2022-10-14T08:33:51.527Z,47.74
2022-10-14T08:34:55.806Z,47.56
2022-10-14T08:35:57.923Z,46.71
2022-10-14T08:36:59.867Z,48.93
2022-10-14T08:38:02.823Z,48.17
2022-10-14T08:39:06.635Z,46.51
2022-10-14T08:40:11.879Z,46.92
2022-10-14T08:41:16.550Z,48.73
2022-10-14T08:42:34.717Z,46.63
2022-10-14T08:44:09.994Z,45.23
2022-10-14T08:45:25.018Z,45.14
2022-10-14T08:46:30.548Z,45.31
2022-10-14T08:47:37.782Z,46.29
2022-10-14T08:48:40.276Z,46.92
2022-10-14T08:50:03.090Z,46.06
2022-10-14T08:51:12.846Z,45.60
2022-10-14T08:52:21.146Z,46.22
2022-10-14T08:53:29.136Z,46.73
2022-10-14T08:54:41.104Z,47.01
2022-10-14T08:55:50.975Z,46.23
2022-10-14T08:56:53.678Z,46.27
2022-10-14T08:58:19.583Z,45.65
2022-10-14T08:59:23.179Z,45.84
2022-10-14T09:00:25.255Z,46.91
2022-10-14T09:01:31.962Z,45.73
2022-10-14T09:02:50.451Z,46.09
2022-10-14T09:03:58.444Z,46.58
2022-10-14T09:05:02.254Z,45.32
2022-10-14T09:06:10.790Z,45.92
2022-10-14T09:07:18.998Z,45.78
2022-10-14T09:08:28.424Z,45.11
2022-10-14T09:09:53.368Z,46.47
2022-10-14T09:10:55.442Z,46.13
2022-10-14T09:12:01.351Z,48.35
2022-10-14T09:13:29.171Z,47.71
2022-10-14T09:14:36.511Z,47.47
2022-10-14T09:15:42.757Z,46.90
2022-10-14T09:16:50.345Z,47.67
2022-10-14T09:18:06.094Z,47.37
2022-10-14T09:19:39.694Z,47.55
2022-10-14T09:20:43.694Z,47.02
2022-10-14T09:21:54.595Z,47.54
2022-10-14T09:22:59.504Z,47.41
2022-10-14T09:24:01.446Z,48.16
2022-10-14T09:25:03.534Z,48.44
2022-10-14T09:26:11.813Z,48.53
2022-10-14T09:27:23.361Z,48.87
2022-10-14T09:28:44.655Z,47.16
2022-10-14T09:29:51.285Z,48.48
2022-10-14T09:30:53.253Z,47.38
2022-10-14T09:32:08.988Z,47.20
2022-10-14T09:33:18.199Z,48.86
2022-10-14T09:34:28.785Z,46.89
2022-10-14T09:35:37.710Z,46.70
2022-10-14T09:36:39.871Z,46.97
2022-10-14T09:37:42.487Z,47.22
2022-10-14T09:38:47.489Z,46.20
2022-10-14T09:39:50.861Z,47.42
2022-10-14T09:40:58.655Z,46.83
2022-10-14T09:42:01.149Z,46.38
2022-10-14T09:43:08.768Z,46.19
2022-10-14T09:44:26.117Z,47.07
2022-10-14T09:45:59.407Z,47.65
2022-10-14T09:47:10.734Z,47.04
2022-10-14T09:48:41.297Z,48.07
2022-10-14T09:49:46.462Z,46.77
2022-10-14T09:50:56.973Z,48.51
2022-10-14T09:51:59.220Z,47.23
2022-10-14T09:53:10.651Z,47.83
2022-10-14T09:54:26.719Z,47.26
2022-10-14T09:55:29.900Z,47.21
2022-10-14T09:56:41.605Z,47.90
2022-10-14T09:57:44.879Z,46.79
2022-10-14T09:58:53.849Z,48.24
2022-10-14T10:00:00.743Z,47.21
2022-10-14T10:01:03.646Z,46.95
2022-10-14T10:02:16.706Z,47.42
2022-10-14T10:03:32.808Z,47.63
2022-10-14T10:04:47.812Z,46.63
2022-10-14T10:06:00.350Z,47.65
2022-10-14T10:07:07.130Z,47.58
2022-10-14T10:08:17.098Z,48.01
2022-10-14T10:09:20.167Z,47.85
2022-10-14T10:10:22.908Z,47.53
2022-10-14T10:11:38.964Z,45.35
2022-10-14T10:12:46.334Z,46.17
2022-10-14T10:13:48.538Z,44.60
2022-10-14T10:14:58.999Z,44.72
2022-10-14T10:16:04.130Z,44.63
2022-10-14T10:17:10.000Z,44.56
2022-10-14T10:18:24.099Z,43.31
2022-10-14T10:19:32.439Z,43.09
2022-10-14T10:20:36.092Z,42.20
2022-10-14T10:21:38.059Z,44.14
2022-10-14T10:22:40.268Z,43.48
2022-10-14T10:23:53.577Z,41.99
2022-10-14T10:25:01.612Z,42.58
2022-10-14T10:26:29.535Z,42.55
2022-10-14T10:27:38.729Z,41.96
2022-10-14T10:28:46.258Z,42.92
2022-10-14T10:29:48.211Z,42.42
2022-10-14T10:31:19.679Z,41.37
2022-10-14T10:32:21.832Z,43.45
2022-10-14T10:33:54.193Z,41.59
2022-10-14T10:35:22.628Z,41.64
2022-10-14T10:36:54.104Z,40.95
2022-10-14T10:38:01.404Z,41.54
2022-10-14T10:39:14.280Z,42.53
2022-10-14T10:40:40.022Z,42.32
2022-10-14T10:41:58.690Z,41.32
2022-10-14T10:43:18.762Z,41.18
2022-10-14T10:44:29.299Z,40.85
2022-10-14T10:45:43.981Z,40.88
2022-10-14T10:46:51.537Z,41.54
2022-10-14T10:48:09.555Z,41.62
2022-10-14T10:49:30.866Z,41.46
2022-10-14T10:50:37.994Z,41.51
2022-10-14T10:52:17.360Z,39.24
2022-10-14T10:53:43.656Z,41.62
2022-10-14T10:55:06.265Z,39.84
2022-10-14T10:56:13.665Z,39.25
2022-10-14T10:57:43.925Z,40.78
2022-10-14T10:58:56.698Z,39.12
2022-10-14T11:00:12.868Z,39.71
2022-10-14T11:01:36.761Z,40.21
2022-10-14T11:02:44.329Z,40.90
2022-10-14T11:04:23.198Z,41.85
2022-10-14T11:05:43.159Z,39.14
2022-10-14T11:07:12.451Z,38.81
2022-10-14T11:08:53.263Z,38.58
2022-10-14T11:10:33.232Z,39.11
2022-10-14T11:12:14.296Z,38.80
2022-10-14T11:13:30.740Z,39.78
2022-10-14T11:14:55.415Z,39.98
2022-10-14T11:16:07.778Z,39.62
2022-10-14T11:17:15.474Z,38.90
2022-10-14T11:18:33.743Z,38.55
2022-10-14T11:19:59.060Z,39.33
2022-10-14T11:21:18.608Z,40.02
2022-10-14T11:22:23.589Z,39.72
2022-10-14T11:23:42.667Z,36.17
2022-10-14T11:25:18.122Z,36.37
2022-10-14T11:26:37.775Z,39.26
2022-10-14T11:27:54.063Z,37.57
2022-10-14T11:29:46.758Z,38.16
2022-10-14T11:31:18.595Z,38.29
2022-10-14T11:32:32.765Z,38.63
2022-10-14T11:34:02.580Z,38.52
2022-10-14T11:35:19.412Z,37.41
2022-10-14T11:36:55.429Z,38.15
2022-10-14T11:39:42.334Z,37.68
2022-10-14T11:41:08.404Z,37.42
2022-10-14T11:42:15.987Z,38.29
2022-10-14T11:43:17.587Z,39.01
2022-10-14T11:44:31.142Z,37.78
2022-10-14T11:45:35.562Z,37.69
2022-10-14T11:46:43.071Z,36.96
2022-10-14T11:47:48.789Z,36.87
2022-10-14T11:48:55.964Z,36.71
2022-10-14T11:50:03.383Z,37.16
2022-10-14T11:51:13.202Z,36.86
2022-10-14T11:52:22.262Z,36.27
2022-10-14T11:53:33.689Z,36.50
2022-10-14T11:54:44.168Z,36.34
2022-10-14T11:56:14.957Z,37.16
2022-10-14T11:57:38.379Z,37.98
2022-10-14T11:58:42.638Z,37.15
2022-10-14T12:00:18.726Z,37.10
2022-10-14T12:01:27.938Z,36.91
2022-10-14T12:02:41.118Z,37.64
2022-10-14T12:04:04.486Z,37.26
2022-10-14T12:05:39.344Z,37.00
2022-10-14T12:06:50.100Z,36.78
2022-10-14T12:08:34.695Z,36.93
2022-10-14T12:09:43.613Z,39.04
2022-10-14T12:10:53.310Z,38.21
2022-10-14T12:12:08.182Z,38.36
2022-10-14T12:13:19.753Z,38.79
2022-10-14T12:14:42.705Z,38.68
2022-10-14T12:15:49.428Z,38.27
2022-10-14T12:16:51.645Z,38.09
2022-10-14T12:18:00.447Z,37.73
2022-10-14T12:19:02.326Z,38.50
2022-10-14T12:20:14.961Z,38.61
2022-10-14T12:21:34.631Z,38.58
2022-10-14T12:22:36.611Z,38.67
2022-10-14T12:23:44.235Z,38.39
2022-10-14T12:24:51.055Z,38.20
2022-10-14T12:26:04.335Z,38.95
2022-10-14T12:27:10.485Z,38.96
2022-10-14T12:28:14.515Z,39.21
2022-10-14T12:29:31.576Z,38.30
2022-10-14T12:30:39.687Z,38.73
2022-10-14T12:31:41.767Z,39.45
2022-10-14T12:33:12.593Z,38.66
2022-10-14T12:34:15.379Z,38.45
2022-10-14T12:35:47.335Z,39.32
2022-10-14T12:36:50.735Z,38.19
2022-10-14T12:37:52.862Z,38.54
2022-10-14T12:39:31.184Z,38.14
2022-10-14T12:40:33.019Z,38.68
2022-10-14T12:41:43.709Z,39.49
2022-10-14T12:42:48.537Z,39.53
2022-10-14T12:44:14.756Z,38.32
2022-10-14T12:45:26.266Z,38.01
2022-10-14T12:46:27.973Z,37.36
2022-10-14T12:47:35.259Z,37.15
2022-10-14T12:48:45.883Z,36.89
2022-10-14T12:49:56.701Z,36.37
2022-10-14T12:51:16.019Z,36.39
2022-10-14T12:52:31.285Z,36.60
2022-10-14T12:53:34.700Z,36.52
2022-10-14T12:54:38.540Z,36.14
2022-10-14T12:55:50.698Z,36.33
2022-10-14T12:57:00.536Z,36.77
2022-10-14T12:58:05.074Z,36.98
2022-10-14T13:00:23.549Z,36.60
2022-10-14T13:01:25.261Z,37.19
2022-10-14T13:02:35.327Z,37.29
2022-10-14T13:03:43.750Z,38.17
2022-10-14T13:04:55.333Z,36.89
2022-10-14T13:06:48.880Z,38.29
2022-10-14T13:08:09.004Z,37.04
2022-10-14T13:09:13.938Z,38.63
2022-10-14T13:10:46.910Z,38.78
2022-10-14T13:11:52.138Z,38.15
2022-10-14T13:12:54.196Z,38.03
2022-10-14T13:14:00.739Z,38.06
2022-10-14T13:15:23.747Z,37.62
2022-10-14T13:16:25.368Z,37.10
2022-10-14T13:17:45.415Z,37.43
2022-10-14T13:18:47.004Z,36.51
2022-10-14T13:19:48.823Z,36.63
2022-10-14T13:20:51.796Z,37.41
2022-10-14T13:21:53.946Z,38.61
2022-10-14T13:23:30.540Z,38.47
2022-10-14T13:24:38.620Z,38.51
2022-10-14T13:25:40.393Z,39.40
2022-10-14T13:26:53.915Z,38.56
2022-10-14T13:28:04.435Z,37.45
2022-10-14T13:29:21.491Z,37.07
2022-10-14T13:30:46.204Z,37.13
2022-10-14T13:32:06.537Z,37.59
2022-10-14T13:33:20.589Z,37.01
2022-10-14T13:34:47.001Z,37.92
2022-10-14T13:36:09.780Z,38.24
2022-10-14T13:37:34.787Z,38.54
2022-10-14T13:38:38.656Z,38.02
2022-10-14T13:39:40.396Z,37.98
2022-10-14T13:40:48.364Z,37.88
2022-10-14T13:41:50.655Z,37.85
2022-10-14T13:42:58.686Z,38.15
2022-10-14T13:44:02.069Z,37.80
2022-10-14T13:45:12.205Z,37.59
2022-10-14T13:46:20.399Z,37.51
2022-10-14T13:47:23.456Z,37.68
2022-10-14T13:48:31.694Z,37.91
2022-10-14T13:49:40.484Z,37.82
2022-10-14T13:50:42.627Z,38.23
2022-10-14T13:51:56.118Z,38.29
2022-10-14T13:53:03.296Z,38.63
2022-10-14T13:54:20.013Z,37.65
2022-10-14T13:55:23.902Z,38.09
2022-10-14T13:56:31.427Z,38.01
2022-10-14T13:58:00.071Z,37.76
2022-10-14T13:58:54.867Z,37.74
2022-10-14T14:00:39.443Z,37.71
2022-10-14T14:01:21.445Z,37.26
2022-10-14T14:02:30.166Z,37.52
2022-10-14T14:03:37.764Z,38.45
2022-10-14T14:04:40.170Z,39.26
2022-10-14T14:05:42.394Z,39.17
2022-10-14T14:07:18.313Z,38.71
2022-10-14T14:08:37.192Z,39.07
2022-10-14T14:09:40.427Z,39.56
2022-10-14T14:11:14.375Z,39.55
2022-10-14T14:12:13.748Z,39.42
2022-10-14T14:13:16.155Z,39.21
2022-10-14T14:14:40.835Z,40.10
2022-10-14T14:15:43.642Z,40.41
2022-10-14T14:16:50.474Z,40.50
2022-10-14T14:17:52.435Z,40.68
2022-10-14T14:19:07.699Z,41.43
2022-10-14T14:20:11.759Z,41.36
2022-10-14T14:21:13.837Z,41.20
2022-10-14T14:22:28.646Z,40.62
2022-10-14T14:23:31.068Z,40.54
2022-10-14T14:24:34.351Z,40.47
2022-10-14T14:25:46.569Z,40.89
2022-10-14T14:26:57.838Z,41.39
2022-10-14T14:28:05.846Z,40.90
2022-10-14T14:29:17.416Z,40.92
2022-10-14T14:30:33.757Z,41.00
2022-10-14T14:32:05.103Z,41.29
2022-10-14T14:33:01.013Z,41.57
2022-10-14T14:34:02.786Z,42.45